Time;durP1;ratioP1;P1;durP2;ratioP2;P2;SDS_P1;SDS_P2;PMS_P1;PMS_P2;Temp;Humidity;BMP_temperature;BMP_pressure;BME280_temperature;BME280_humidity;BME280_pressure;Samples;Min_cycle;Max_cycle;Signal;HPM_P1;HPM_P2
2022/08/17 00:02:10;;;;;;;12.70;9.63;;;21.80;99.90;;;;;;5200079;28;20600;-48
2022/08/17 00:04:40;;;;;;;12.37;8.60;;;21.80;99.90;;;;;;5214299;28;20190;-47
2022/08/17 00:07:11;;;;;;;13.37;9.47;;;21.80;99.90;;;;;;5201389;28;20220;-50
2022/08/17 00:09:41;;;;;;;12.37;9.00;;;21.80;99.90;;;;;;5200724;28;20209;-49
2022/08/17 00:12:13;;;;;;;13.80;9.30;;;21.80;99.90;;;;;;5203704;28;20190;-48
2022/08/17 00:14:43;;;;;;;10.00;8.40;;;21.80;99.90;;;;;;5207308;28;20179;-47
2022/08/17 00:17:14;;;;;;;14.17;8.37;;;21.80;99.90;;;;;;5205684;28;20854;-48
2022/08/17 00:19:44;;;;;;;12.33;9.67;;;21.70;99.90;;;;;;5201719;28;20203;-48
2022/08/17 00:22:15;;;;;;;14.47;9.80;;;21.70;99.90;;;;;;5222467;28;20253;-48
2022/08/17 00:24:46;;;;;;;24.03;9.80;;;21.60;99.90;;;;;;5203965;28;20175;-47
2022/08/17 00:27:17;;;;;;;10.90;8.80;;;21.60;99.90;;;;;;5211898;28;20988;-49
2022/08/17 00:29:48;;;;;;;18.77;9.50;;;21.60;99.90;;;;;;5201001;28;20195;-49
2022/08/17 00:32:19;;;;;;;8.30;7.50;;;21.60;99.90;;;;;;5204056;28;20444;-48
2022/08/17 00:34:49;;;;;;;9.60;8.33;;;21.50;99.90;;;;;;5201432;28;20258;-47
2022/08/17 00:37:20;;;;;;;9.20;8.23;;;21.50;99.90;;;;;;5199991;28;20204;-48
2022/08/17 00:39:51;;;;;;;9.33;8.33;;;21.50;99.90;;;;;;5215279;28;20682;-47
2022/08/17 00:42:21;;;;;;;13.33;10.40;;;21.50;99.90;;;;;;5201884;28;20188;-48
2022/08/17 00:44:52;;;;;;;16.80;9.70;;;21.40;99.90;;;;;;5220357;28;20191;-48
2022/08/17 00:47:23;;;;;;;12.10;9.03;;;21.40;99.90;;;;;;5186980;28;20207;-47
2022/08/17 00:49:53;;;;;;;9.73;8.73;;;21.40;99.90;;;;;;5206363;28;20878;-47
2022/08/17 00:52:30;;;;;;;7.80;6.93;;;21.40;99.90;;;;;;5205338;28;20186;-47
2022/08/17 00:55:02;;;;;;;14.87;10.50;;;21.30;99.90;;;;;;5206798;28;20258;-47
2022/08/17 00:57:45;;;;;;;14.23;11.13;;;21.20;99.90;;;;;;5187094;28;20451;-47
2022/08/17 01:00:18;;;;;;;17.10;11.47;;;21.40;99.90;;;;;;5204717;28;20465;-47
2022/08/17 01:02:49;;;;;;;16.40;10.93;;;21.40;99.90;;;;;;5204233;28;20472;-48
2022/08/17 01:05:23;;;;;;;21.20;11.83;;;21.30;99.90;;;;;;5202113;28;20434;-47
2022/08/17 01:07:54;;;;;;;16.50;10.47;;;21.30;99.90;;;;;;5199155;28;20227;-46
2022/08/17 01:10:35;;;;;;;11.30;9.20;;;21.30;99.90;;;;;;5208557;28;20486;-46
2022/08/17 01:13:06;;;;;;;9.20;8.17;;;21.30;99.90;;;;;;5207518;28;20979;-45
2022/08/17 01:15:40;;;;;;;10.93;8.97;;;21.20;99.90;;;;;;5201166;28;20472;-47
2022/08/17 01:18:12;;;;;;;10.57;9.50;;;21.20;99.90;;;;;;5216787;28;20481;-44
2022/08/17 01:20:52;;;;;;;15.83;10.90;;;21.20;99.90;;;;;;5200346;28;20446;-45
2022/08/17 01:23:26;;;;;;;18.27;10.90;;;21.20;99.90;;;;;;5201587;28;20442;-45
2022/08/17 01:26:00;;;;;;;14.93;11.23;;;21.20;99.90;;;;;;5204261;28;20957;-46
2022/08/17 01:28:33;;;;;;;21.47;11.67;;;21.20;99.90;;;;;;5204793;28;20438;-45
2022/08/17 01:31:06;;;;;;;21.03;12.07;;;21.20;99.90;;;;;;5199810;28;20819;-46
2022/08/17 01:33:37;;;;;;;18.30;11.37;;;21.10;99.90;;;;;;5202522;28;20450;-46
2022/08/17 01:36:08;;;;;;;15.53;11.03;;;21.10;99.90;;;;;;5202024;28;20915;-44
2022/08/17 01:38:39;;;;;;;23.03;13.23;;;21.10;99.90;;;;;;5199233;28;20275;-46
2022/08/17 01:41:14;;;;;;;18.60;9.93;;;21.10;99.90;;;;;;5208419;28;20183;-45
2022/08/17 01:43:53;;;;;;;21.27;11.10;;;21.10;99.90;;;;;;5215083;28;20509;-47
2022/08/17 01:46:26;;;;;;;15.57;11.90;;;21.10;99.90;;;;;;5199987;28;20454;-46
2022/08/17 01:48:58;;;;;;;16.80;11.67;;;21.10;99.90;;;;;;5199929;28;20447;-45
2022/08/17 01:51:31;;;;;;;11.50;10.40;;;21.10;99.90;;;;;;5201146;28;20477;-46
2022/08/17 01:54:11;;;;;;;15.63;10.23;;;21.10;99.90;;;;;;5198561;28;20462;-47
2022/08/17 01:56:46;;;;;;;15.90;10.43;;;21.10;99.90;;;;;;5205314;28;20449;-47
2022/08/17 01:59:19;;;;;;;15.50;9.83;;;21.10;99.90;;;;;;5204862;28;20525;-45
2022/08/17 02:01:49;;;;;;;11.30;9.27;;;21.10;99.90;;;;;;5199911;28;20526;-46
2022/08/17 02:04:20;;;;;;;14.70;10.73;;;21.00;99.90;;;;;;5200794;28;20573;-47
2022/08/17 02:06:51;;;;;;;17.97;11.53;;;20.90;99.90;;;;;;5204191;28;20216;-47
2022/08/17 02:09:23;;;;;;;15.37;10.83;;;20.90;99.90;;;;;;5203347;28;20215;-50
2022/08/17 02:11:56;;;;;;;14.10;11.30;;;20.90;99.90;;;;;;5199485;28;20187;-48
2022/08/17 02:14:27;;;;;;;16.67;11.70;;;20.90;99.90;;;;;;5207082;28;20485;-46
2022/08/17 02:16:58;;;;;;;13.03;9.97;;;20.90;99.90;;;;;;5202139;28;20506;-45
2022/08/17 02:19:30;;;;;;;18.40;10.07;;;21.00;99.90;;;;;;5210787;28;20213;-49
2022/08/17 02:22:01;;;;;;;17.10;11.43;;;20.90;99.90;;;;;;5197883;28;20194;-46
2022/08/17 02:24:34;;;;;;;16.43;10.40;;;20.80;99.90;;;;;;5208431;28;20438;-47
2022/08/17 02:27:05;;;;;;;16.63;10.97;;;20.80;99.90;;;;;;5199747;28;20298;-46
2022/08/17 02:29:36;;;;;;;13.33;10.97;;;20.80;99.90;;;;;;5198947;28;20537;-46
2022/08/17 02:32:15;;;;;;;14.77;11.03;;;20.70;99.90;;;;;;5199698;28;20446;-46
2022/08/17 02:34:46;;;;;;;15.37;10.77;;;20.70;99.90;;;;;;5208689;28;20274;-46
2022/08/17 02:37:17;;;;;;;23.60;12.30;;;20.70;99.90;;;;;;5209409;28;20529;-45
2022/08/17 02:39:48;;;;;;;13.43;10.63;;;20.70;99.90;;;;;;5204676;28;20183;-44
2022/08/17 02:42:25;;;;;;;16.10;11.30;;;20.70;99.90;;;;;;5199840;28;20446;-47
2022/08/17 02:44:55;;;;;;;14.30;11.77;;;20.60;99.90;;;;;;5209419;28;20667;-44
2022/08/17 02:47:26;;;;;;;21.33;11.80;;;20.60;99.90;;;;;;5206851;28;20544;-45
2022/08/17 02:49:57;;;;;;;22.20;13.00;;;20.60;99.90;;;;;;5205606;28;20199;-46
2022/08/17 02:52:34;;;;;;;16.80;11.10;;;20.60;99.90;;;;;;5202588;28;20435;-44
2022/08/17 02:55:06;;;;;;;14.63;11.00;;;20.60;99.90;;;;;;5202050;28;20880;-46
2022/08/17 02:57:37;;;;;;;18.73;10.73;;;20.50;99.90;;;;;;5205568;28;20461;-44
2022/08/17 03:00:12;;;;;;;19.10;10.60;;;20.40;99.90;;;;;;5197832;28;20443;-46
2022/08/17 03:02:43;;;;;;;16.10;11.80;;;20.40;99.90;;;;;;5209463;28;20196;-44
2022/08/17 03:05:17;;;;;;;19.20;12.03;;;20.40;99.90;;;;;;5195646;28;20911;-44
2022/08/17 03:07:47;;;;;;;21.33;11.97;;;20.40;99.90;;;;;;5203999;28;21075;-44
2022/08/17 03:10:19;;;;;;;22.90;11.90;;;20.40;99.90;;;;;;5201289;28;20566;-45
2022/08/17 03:12:51;;;;;;;12.33;10.57;;;20.40;99.90;;;;;;5197682;28;20180;-46
2022/08/17 03:15:25;;;;;;;15.73;12.23;;;20.50;99.90;;;;;;5200901;28;20444;-44
2022/08/17 03:17:57;;;;;;;11.83;10.50;;;20.50;99.90;;;;;;5192687;28;20466;-45
2022/08/17 03:20:29;;;;;;;10.67;9.60;;;20.40;99.90;;;;;;5205024;28;20449;-46
2022/08/17 03:23:00;;;;;;;9.80;8.80;;;20.40;99.90;;;;;;5205403;28;20880;-45
2022/08/17 03:25:34;;;;;;;13.20;9.87;;;20.30;99.90;;;;;;5211207;28;20530;-45
2022/08/17 03:28:05;;;;;;;16.17;10.77;;;20.30;99.90;;;;;;5200981;28;20722;-46
2022/08/17 03:30:37;;;;;;;11.40;10.07;;;20.30;99.90;;;;;;5201870;28;20463;-45
2022/08/17 03:33:09;;;;;;;19.20;11.80;;;20.20;99.90;;;;;;5206920;28;20442;-45
2022/08/17 03:35:40;;;;;;;17.73;13.00;;;20.20;99.90;;;;;;5205914;28;20548;-45
2022/08/17 03:38:12;;;;;;;16.80;12.40;;;20.20;99.90;;;;;;5201149;28;20557;-45
2022/08/17 03:40:45;;;;;;;19.40;14.10;;;20.20;99.90;;;;;;5202248;28;21010;-45
2022/08/17 03:43:16;;;;;;;18.00;12.20;;;20.20;99.90;;;;;;5203678;28;20521;-45
2022/08/17 03:57:09;;;;;;;17.33;11.30;;;20.30;99.90;;;;;;5198534;28;20544;-46
2022/08/17 03:59:40;;;;;;;16.30;12.67;;;20.30;99.90;;;;;;5195487;28;20449;-45
2022/08/17 04:02:24;;;;;;;20.73;12.10;;;20.40;99.90;;;;;;5192793;28;20541;-46
2022/08/17 04:04:55;;;;;;;17.93;11.30;;;20.30;99.90;;;;;;5196396;28;20180;-46
2022/08/17 04:07:28;;;;;;;13.17;10.70;;;20.30;99.90;;;;;;5199202;28;20796;-47
2022/08/17 04:09:59;;;;;;;12.83;10.80;;;20.30;99.90;;;;;;5187971;28;20267;-47
2022/08/17 04:12:49;;;;;;;14.67;9.70;;;20.40;99.90;;;;;;5195971;28;20510;-47
2022/08/17 04:15:21;;;;;;;12.93;9.23;;;20.40;99.90;;;;;;5197795;28;20263;-46
2022/08/17 04:17:51;;;;;;;22.13;11.87;;;20.40;99.90;;;;;;5209300;28;20462;-45
2022/08/17 04:20:23;;;;;;;13.97;11.07;;;20.40;99.90;;;;;;5197651;28;20801;-46
2022/08/17 04:23:00;;;;;;;14.20;10.70;;;20.40;99.90;;;;;;5194101;28;20187;-46
2022/08/17 04:25:33;;;;;;;14.27;11.40;;;20.40;99.90;;;;;;5186597;28;20500;-45
2022/08/17 04:28:05;;;;;;;19.47;12.07;;;20.50;99.90;;;;;;5211900;28;20485;-48
2022/08/17 04:30:37;;;;;;;19.00;13.73;;;20.50;99.90;;;;;;5215310;28;20469;-51
2022/08/17 04:33:12;;;;;;;15.20;12.00;;;20.50;99.90;;;;;;5204368;28;20524;-45
2022/08/17 04:35:48;;;;;;;23.03;13.30;;;20.60;99.90;;;;;;5203340;28;20434;-46
2022/08/17 04:38:23;;;;;;;17.67;13.10;;;20.60;99.90;;;;;;5199829;28;20509;-45
2022/08/17 04:43:45;;;;;;;14.97;12.00;;;20.70;99.90;;;;;;5201828;28;20810;-45
2022/08/17 04:46:18;;;;;;;18.97;12.37;;;20.90;99.90;;;;;;5201934;28;21044;-45
2022/08/17 04:48:52;;;;;;;16.13;11.37;;;21.00;99.90;;;;;;5202086;28;20446;-49
2022/08/17 04:51:30;;;;;;;16.73;12.80;;;21.20;99.90;;;;;;5200954;28;20472;-45
2022/08/17 04:54:05;;;;;;;17.23;12.83;;;21.30;99.90;;;;;;5200149;28;20477;-46
2022/08/17 04:56:36;;;;;;;22.80;13.23;;;21.40;99.90;;;;;;5209741;28;20540;-46
2022/08/17 04:59:17;;;;;;;20.70;12.90;;;21.50;99.90;;;;;;5208310;28;20488;-45
2022/08/17 05:01:50;;;;;;;27.23;17.10;;;21.90;99.90;;;;;;5201045;28;20446;-51
2022/08/17 05:04:23;;;;;;;22.63;16.60;;;22.70;99.90;;;;;;5204787;28;20962;-45
2022/08/17 05:06:55;;;;;;;18.57;14.20;;;23.50;99.90;;;;;;5202685;28;20459;-45
2022/08/17 05:09:26;;;;;;;22.93;14.63;;;24.00;99.90;;;;;;5204425;28;20436;-45
2022/08/17 05:12:01;;;;;;;23.23;15.03;;;24.00;99.90;;;;;;5205274;28;20430;-45
2022/08/17 05:14:31;;;;;;;17.63;13.40;;;24.00;99.90;;;;;;5191051;28;20186;-47
2022/08/17 05:17:02;;;;;;;20.60;13.23;;;24.10;99.90;;;;;;5210377;28;20962;-46
2022/08/17 05:19:32;;;;;;;21.10;13.00;;;24.10;99.90;;;;;;5216786;28;20555;-46
2022/08/17 05:22:04;;;;;;;17.60;11.77;;;24.10;99.90;;;;;;5198692;28;20211;-46
2022/08/17 05:24:35;;;;;;;19.87;12.63;;;24.60;99.90;;;;;;5205038;28;20176;-46
2022/08/17 05:27:06;;;;;;;15.90;11.70;;;26.40;99.90;;;;;;5210336;28;20518;-47
2022/08/17 05:29:37;;;;;;;17.03;11.17;;;28.40;93.70;;;;;;5221387;28;20631;-45
2022/08/17 05:32:09;;;;;;;18.57;12.40;;;29.50;80.00;;;;;;5200527;28;20163;-47
2022/08/17 05:34:41;;;;;;;16.47;11.90;;;30.50;71.00;;;;;;5195636;28;20431;-49
2022/08/17 05:37:11;;;;;;;13.03;10.50;;;31.60;62.40;;;;;;5201285;28;20445;-50
2022/08/17 05:39:42;;;;;;;10.40;8.47;;;32.10;57.80;;;;;;5200762;28;20450;-45
2022/08/17 05:42:18;;;;;;;10.50;8.80;;;32.20;55.80;;;;;;5202408;28;20539;-45
2022/08/17 05:44:48;;;;;;;25.53;10.03;;;32.90;54.20;;;;;;5199771;28;20186;-47
2022/08/17 05:47:21;;;;;;;12.40;8.77;;;34.20;51.90;;;;;;5183359;28;20462;-46
2022/08/17 05:49:52;;;;;;;10.50;8.50;;;35.50;48.80;;;;;;5203007;28;20218;-45
2022/08/17 05:52:56;;;;;;;17.00;9.10;;;36.80;46.00;;;;;;5183349;28;20213;-46
2022/08/17 05:55:44;;;;;;;12.02;8.57;;;37.40;42.90;;;;;;5200521;28;20179;-46
2022/08/17 05:58:31;;;;;;;12.13;8.68;;;37.90;41.80;;;;;;5207021;28;20187;-51
2022/08/17 06:01:16;;;;;;;16.17;9.48;;;38.00;41.00;;;;;;5199716;28;20191;-46
2022/08/17 06:03:59;;;;;;;11.02;8.85;;;37.60;40.20;;;;;;5207518;28;20260;-49
2022/08/17 06:06:39;;;;;;;15.40;8.93;;;37.20;40.10;;;;;;5201421;28;20277;-48
2022/08/17 06:09:35;;;;;;;7.93;7.13;;;37.50;39.50;;;;;;5200802;28;20191;-47
2022/08/17 06:12:36;;;;;;;10.80;7.80;;;37.60;35.90;;;;;;5197711;28;20183;-47
2022/08/17 06:15:25;;;;;;;7.45;6.47;;;37.80;36.20;;;;;;5192568;28;20175;-50
2022/08/17 06:18:02;;;;;;;10.48;8.15;;;38.30;35.30;;;;;;5195518;28;20203;-46
2022/08/17 06:21:00;;;;;;;13.95;6.95;;;38.70;35.20;;;;;;5196402;28;20179;-46
2022/08/17 06:23:37;;;;;;;22.27;9.20;;;39.10;33.30;;;;;;5191743;28;20250;-46
2022/08/17 06:26:25;;;;;;;15.75;8.02;;;39.40;34.70;;;;;;5195375;28;20748;-45
2022/08/17 06:29:10;;;;;;;18.65;8.05;;;39.10;33.20;;;;;;5207849;28;20188;-46
2022/08/17 06:31:41;;;;;;;15.10;7.68;;;39.30;33.60;;;;;;5200436;28;20355;-46
2022/08/17 06:34:12;;;;;;;9.38;6.72;;;39.90;33.60;;;;;;5201978;28;20271;-46
2022/08/17 06:37:20;;;;;;;9.10;5.57;;;40.30;31.20;;;;;;5199784;28;20675;-49
2022/08/17 06:40:24;;;;;;;11.07;6.18;;;40.60;31.00;;;;;;5191106;28;20218;-46
2022/08/17 06:43:28;;;;;;;8.52;7.70;;;41.00;31.10;;;;;;5202651;28;20182;-44
2022/08/17 06:46:09;;;;;;;8.38;6.00;;;41.40;29.80;;;;;;5190573;28;20601;-45
2022/08/17 06:48:47;;;;;;;13.60;7.15;;;42.00;29.80;;;;;;5201597;28;20195;-46
2022/08/17 06:51:32;;;;;;;8.40;6.55;;;42.30;29.90;;;;;;5196500;28;20199;-45
2022/08/17 06:54:25;;;;;;;11.48;6.18;;;42.90;29.40;;;;;;5203431;28;20190;-45
2022/08/17 06:57:21;;;;;;;9.98;6.78;;;43.60;28.10;;;;;;5200563;28;20217;-47
2022/08/17 06:59:58;;;;;;;6.03;5.53;;;44.20;27.90;;;;;;5185204;28;20191;-48
2022/08/17 07:02:50;;;;;;;8.50;6.15;;;43.40;26.80;;;;;;5192945;28;20182;-50
2022/08/17 07:05:29;;;;;;;8.95;5.40;;;43.80;27.20;;;;;;5199209;28;20187;-47
2022/08/17 07:08:02;;;;;;;7.78;6.25;;;44.30;27.10;;;;;;5205050;28;20221;-47
2022/08/17 07:10:42;;;;;;;6.00;5.50;;;44.70;26.90;;;;;;5200705;28;20542;-45
2022/08/17 07:13:43;;;;;;;12.90;5.53;;;44.90;26.60;;;;;;5198190;28;20675;-47
2022/08/17 07:16:26;;;;;;;8.05;5.55;;;45.30;26.60;;;;;;5170233;28;20252;-45
2022/08/17 07:18:58;;;;;;;5.03;4.53;;;45.60;25.20;;;;;;5208353;28;20214;-48
2022/08/17 07:21:49;;;;;;;8.23;4.95;;;45.60;25.30;;;;;;5195557;28;20194;-46
2022/08/17 07:24:42;;;;;;;4.88;4.47;;;45.70;25.20;;;;;;5200510;28;20310;-50
2022/08/17 07:27:21;;;;;;;6.50;4.90;;;45.90;25.40;;;;;;5194152;28;20203;-47
2022/08/17 07:30:00;;;;;;;5.45;4.95;;;45.70;24.20;;;;;;5198075;22;20235;-51
2022/08/17 07:32:35;;;;;;;6.20;5.65;;;45.20;24.60;;;;;;5110021;28;20650;-49
2022/08/17 07:35:27;;;;;;;6.07;5.25;;;44.80;25.70;;;;;;5136260;28;20201;-50
2022/08/17 07:38:18;;;;;;;5.40;5.00;;;44.80;25.90;;;;;;5116150;28;20193;-50
2022/08/17 07:41:01;;;;;;;5.15;4.68;;;44.30;24.30;;;;;;5116787;28;20202;-50
2022/08/17 07:43:40;;;;;;;6.55;5.38;;;44.30;25.10;;;;;;5116212;28;20277;-50
2022/08/17 07:49:10;;;;;;;3.67;3.33;;;44.00;24.50;;;;;;5124145;28;20222;-50
2022/08/17 07:51:44;;;;;;;6.38;3.97;;;43.30;25.30;;;;;;5122187;28;20296;-51
2022/08/17 07:54:15;;;;;;;3.05;2.83;;;43.40;24.80;;;;;;5141646;28;20212;-50
2022/08/17 07:56:47;;;;;;;7.32;4.53;;;43.60;25.10;;;;;;5120357;28;20220;-49
2022/08/17 07:59:26;;;;;;;4.45;4.03;;;44.10;24.60;;;;;;5111913;28;20233;-50
2022/08/17 08:01:56;;;;;;;5.72;3.20;;;44.10;24.00;;;;;;5118814;28;20837;-51
2022/08/17 08:04:37;;;;;;;4.88;4.07;;;43.90;24.10;;;;;;5106714;28;20179;-50
2022/08/17 08:07:16;;;;;;;3.33;3.13;;;43.80;24.00;;;;;;5120038;28;20223;-50
2022/08/17 08:10:11;;;;;;;4.70;3.38;;;43.80;24.70;;;;;;5117724;28;20240;-49
2022/08/17 08:12:47;;;;;;;3.63;3.42;;;43.70;24.40;;;;;;5117484;28;20178;-50
2022/08/17 08:15:21;;;;;;;10.10;4.15;;;43.30;24.00;;;;;;5114957;28;20181;-51
2022/08/17 08:18:19;;;;;;;3.95;3.65;;;42.70;24.70;;;;;;5124234;28;20183;-50
2022/08/17 08:21:07;;;;;;;3.60;3.50;;;42.00;25.10;;;;;;5111438;28;20214;-50
2022/08/17 08:23:46;;;;;;;4.63;3.90;;;42.20;25.50;;;;;;5122884;28;20280;-49
2022/08/17 08:26:29;;;;;;;9.07;3.50;;;42.90;24.70;;;;;;5112627;28;20206;-51
2022/08/17 08:29:17;;;;;;;3.47;3.28;;;42.70;25.10;;;;;;5121742;28;20190;-51
2022/08/17 08:32:13;;;;;;;3.75;3.55;;;42.80;24.60;;;;;;5121473;28;20213;-50
2022/08/17 08:35:00;;;;;;;5.07;4.07;;;42.20;24.90;;;;;;5121719;28;20236;-49
2022/08/17 08:37:55;;;;;;;5.85;3.92;;;41.30;27.00;;;;;;5121406;28;20186;-50
2022/08/17 08:40:29;;;;;;;5.05;3.65;;;41.10;26.00;;;;;;5121588;28;20292;-50
2022/08/17 08:43:18;;;;;;;4.00;3.70;;;40.50;27.30;;;;;;5113875;28;20213;-49
2022/08/17 08:46:05;;;;;;;4.28;3.45;;;39.90;27.60;;;;;;5121237;28;20229;-49
2022/08/17 08:49:00;;;;;;;4.10;3.67;;;39.10;28.10;;;;;;5127365;28;20201;-50
2022/08/17 08:52:01;;;;;;;3.28;3.08;;;38.00;29.00;;;;;;5127386;28;20209;-50
2022/08/17 08:54:46;;;;;;;4.60;3.97;;;36.80;30.40;;;;;;5109168;28;20209;-50
2022/08/17 08:57:21;;;;;;;4.00;3.70;;;36.10;30.60;;;;;;5120939;28;20273;-49
2022/08/17 08:59:57;;;;;;;4.85;3.50;;;35.20;32.00;;;;;;5115588;28;20206;-49
2022/08/17 09:02:53;;;;;;;3.63;2.00;;;34.60;32.00;;;;;;5117403;28;20195;-49
2022/08/17 09:05:30;;;;;;;2.65;2.50;;;34.10;32.50;;;;;;5111098;28;20188;-49
2022/08/17 09:08:18;;;;;;;5.43;3.53;;;33.60;33.60;;;;;;5118841;28;20185;-49
2022/08/17 09:11:23;;;;;;;3.28;3.17;;;33.30;34.80;;;;;;5111549;28;20205;-49
2022/08/17 09:14:02;;;;;;;3.93;3.67;;;33.00;35.50;;;;;;5117786;28;20186;-48
2022/08/17 09:16:45;;;;;;;3.23;3.00;;;32.80;36.50;;;;;;5127738;28;20181;-49
2022/08/17 09:19:52;;;;;;;3.70;2.70;;;32.60;35.50;;;;;;5121767;28;20265;-49
2022/08/17 09:22:41;;;;;;;3.07;2.77;;;32.30;36.30;;;;;;5138501;28;20182;-49
2022/08/17 09:25:20;;;;;;;3.50;2.90;;;32.20;36.50;;;;;;5112692;28;20216;-50
2022/08/17 09:27:58;;;;;;;5.23;2.40;;;32.30;36.40;;;;;;5120142;28;20247;-49
2022/08/17 09:30:42;;;;;;;3.10;2.70;;;31.90;36.00;;;;;;5122641;28;20201;-50
2022/08/17 09:33:17;;;;;;;5.33;3.03;;;31.80;36.90;;;;;;5107869;28;20183;-49
2022/08/17 09:35:54;;;;;;;5.60;3.07;;;31.90;37.00;;;;;;5120412;28;20177;-50
2022/08/17 09:38:58;;;;;;;5.30;3.23;;;32.00;36.70;;;;;;5116517;28;20277;-51
2022/08/17 09:41:56;;;;;;;6.07;3.53;;;31.90;36.50;;;;;;5122105;28;20255;-49
2022/08/17 09:44:27;;;;;;;3.23;2.90;;;31.80;36.80;;;;;;5127226;28;20630;-50
2022/08/17 09:47:22;;;;;;;3.40;2.70;;;31.60;36.90;;;;;;5134878;28;20191;-49
2022/08/17 09:49:59;;;;;;;5.30;3.27;;;31.30;37.10;;;;;;5134454;28;20221;-48
2022/08/17 09:52:30;;;;;;;3.37;3.00;;;31.10;37.50;;;;;;5136646;28;20800;-49
2022/08/17 09:55:01;;;;;;;2.83;2.70;;;31.10;38.20;;;;;;5121890;28;20441;-49
2022/08/17 09:57:39;;;;;;;3.43;3.23;;;31.30;37.90;;;;;;5130084;28;20189;-50
2022/08/17 10:00:25;;;;;;;3.67;3.37;;;31.60;38.20;;;;;;5115855;28;20217;-50
2022/08/17 10:02:56;;;;;;;3.23;2.70;;;31.90;38.10;;;;;;5132669;28;20189;-50
2022/08/17 10:05:45;;;;;;;3.20;3.00;;;32.20;36.00;;;;;;5114563;28;20636;-48
2022/08/17 10:08:21;;;;;;;7.37;2.90;;;32.30;36.00;;;;;;5134837;28;20212;-50
2022/08/17 10:11:15;;;;;;;8.90;2.60;;;32.20;34.60;;;;;;5115486;28;20227;-51
2022/08/17 10:14:15;;;;;;;6.83;3.20;;;32.30;35.10;;;;;;5117136;28;20583;-48
2022/08/17 10:16:55;;;;;;;4.73;2.70;;;32.10;35.80;;;;;;5120294;28;20789;-49
2022/08/17 10:19:40;;;;;;;3.23;2.90;;;32.30;35.80;;;;;;5123195;28;20225;-49
2022/08/17 10:28:30;;;;;;;3.30;2.70;;;32.90;35.40;;;;;;5112354;28;20261;-50
2022/08/17 10:31:04;;;;;;;3.50;3.20;;;33.10;35.10;;;;;;5110906;28;20210;-49
2022/08/17 10:34:03;;;;;;;5.40;3.27;;;33.10;34.70;;;;;;5111798;28;20213;-49
2022/08/17 10:36:45;;;;;;;3.40;3.10;;;32.90;34.70;;;;;;5109819;28;20183;-48
2022/08/17 10:39:47;;;;;;;7.23;3.00;;;32.90;34.40;;;;;;5117123;28;20175;-49
2022/08/17 10:42:28;;;;;;;5.18;3.30;;;33.00;34.70;;;;;;5119542;28;20194;-49
2022/08/17 10:45:20;;;;;;;3.28;3.03;;;33.10;34.10;;;;;;5115350;28;20178;-50
2022/08/17 10:48:21;;;;;;;4.53;2.90;;;33.20;33.50;;;;;;5116016;28;20189;-49
2022/08/17 10:50:56;;;;;;;2.97;2.77;;;32.80;33.10;;;;;;5137403;28;20754;-49
2022/08/17 10:53:39;;;;;;;4.57;3.00;;;32.30;33.10;;;;;;5140899;28;20190;-48
2022/08/17 10:56:12;;;;;;;3.13;2.83;;;31.90;34.20;;;;;;5115219;28;20187;-49
2022/08/17 10:58:52;;;;;;;3.17;2.50;;;31.60;35.10;;;;;;5120955;28;20454;-49
2022/08/17 11:01:36;;;;;;;3.43;2.73;;;31.50;35.90;;;;;;5119309;28;20489;-49
2022/08/17 11:04:37;;;;;;;5.40;3.70;;;31.80;35.80;;;;;;5107921;28;20454;-49
2022/08/17 11:07:30;;;;;;;3.90;3.00;;;32.10;34.30;;;;;;5111259;28;20192;-50
2022/08/17 11:10:25;;;;;;;2.73;2.50;;;32.10;34.20;;;;;;5111360;28;20221;-50
2022/08/17 11:13:00;;;;;;;4.90;2.07;;;32.00;34.70;;;;;;5117238;28;20189;-49
2022/08/17 11:15:42;;;;;;;2.90;2.80;;;32.00;35.10;;;;;;5136513;28;20177;-48
2022/08/17 11:18:31;;;;;;;2.67;2.30;;;32.10;34.80;;;;;;5116550;28;20240;-49
2022/08/17 11:21:23;;;;;;;3.17;2.97;;;32.00;34.00;;;;;;5127584;28;20213;-50
2022/08/17 11:24:13;;;;;;;2.50;2.30;;;32.00;34.30;;;;;;5141835;28;20182;-48
2022/08/17 11:27:22;;;;;;;3.33;3.13;;;32.10;34.10;;;;;;5116962;28;20283;-49
2022/08/17 11:29:54;;;;;;;4.20;2.43;;;32.00;34.80;;;;;;5111515;28;20221;-49
2022/08/17 11:32:44;;;;;;;2.27;2.17;;;31.90;34.50;;;;;;5116632;28;20247;-49
2022/08/17 11:35:20;;;;;;;3.07;2.87;;;32.10;34.70;;;;;;5113798;28;20236;-49
2022/08/17 11:38:27;;;;;;;3.17;2.90;;;32.40;34.50;;;;;;5111194;28;20616;-47
2022/08/17 11:41:01;;;;;;;2.50;2.20;;;32.60;33.60;;;;;;5125267;28;20209;-49
2022/08/17 11:43:50;;;;;;;3.07;2.80;;;32.50;33.80;;;;;;5118506;28;20595;-48
2022/08/17 11:46:20;;;;;;;3.00;2.90;;;32.60;33.70;;;;;;5121695;28;20251;-49
2022/08/17 11:51:59;;;;;;;2.90;2.60;;;32.40;34.10;;;;;;5137472;28;20259;-48
2022/08/17 11:54:29;;;;;;;4.50;3.43;;;32.20;34.40;;;;;;5130888;28;20709;-49
2022/08/17 11:57:26;;;;;;;3.80;2.63;;;32.20;35.20;;;;;;5132888;28;20188;-49
2022/08/17 12:00:09;;;;;;;3.00;2.70;;;32.50;34.00;;;;;;5124126;28;20204;-48
2022/08/17 12:02:43;;;;;;;2.53;2.30;;;33.00;34.50;;;;;;5128902;28;20244;-48
2022/08/17 12:05:15;;;;;;;2.97;2.88;;;33.50;34.00;;;;;;5117539;28;20189;-49
2022/08/17 12:08:02;;;;;;;4.00;2.83;;;34.00;33.30;;;;;;5123428;28;20189;-49
2022/08/17 12:10:39;;;;;;;9.20;2.58;;;34.10;31.90;;;;;;5120701;28;20788;-48
2022/08/17 12:13:14;;;;;;;3.47;2.42;;;34.00;32.00;;;;;;5134199;28;20216;-49
2022/08/17 12:15:49;;;;;;;3.30;3.00;;;34.10;32.10;;;;;;5132561;28;20165;-48
2022/08/17 12:18:21;;;;;;;8.80;3.13;;;34.30;32.00;;;;;;5120662;28;20193;-48
2022/08/17 12:21:26;;;;;;;4.00;2.50;;;34.20;30.70;;;;;;5121948;28;20677;-51
2022/08/17 12:24:21;;;;;;;3.70;2.58;;;33.90;31.10;;;;;;5152113;28;20676;-49
2022/08/17 12:26:57;;;;;;;2.28;1.90;;;34.00;31.40;;;;;;5124886;28;20186;-50
2022/08/17 12:29:30;;;;;;;2.30;2.17;;;34.00;30.90;;;;;;5117261;28;20242;-51
2022/08/17 12:32:02;;;;;;;2.45;2.35;;;33.70;30.90;;;;;;5107369;28;20297;-48
2022/08/17 12:34:39;;;;;;;3.17;2.60;;;33.40;31.50;;;;;;5120980;28;20195;-48
2022/08/17 12:37:18;;;;;;;3.23;3.13;;;33.30;32.10;;;;;;5117433;28;20185;-51
2022/08/17 12:39:59;;;;;;;3.72;2.88;;;33.10;33.00;;;;;;5118648;28;20284;-49
2022/08/17 12:42:36;;;;;;;3.58;3.28;;;33.10;33.40;;;;;;5105004;28;20186;-48
2022/08/17 12:45:21;;;;;;;6.25;2.97;;;33.10;33.70;;;;;;5121674;28;20268;-51
2022/08/17 12:48:06;;;;;;;5.33;3.63;;;33.30;34.00;;;;;;5124119;28;20182;-49
2022/08/17 12:50:43;;;;;;;2.90;2.80;;;33.00;33.60;;;;;;5122133;28;21673;-51
2022/08/17 12:53:20;;;;;;;4.10;3.70;;;33.00;34.10;;;;;;5128113;28;20192;-48
2022/08/17 12:55:51;;;;;;;3.47;3.27;;;33.10;33.50;;;;;;5144017;28;20572;-49
2022/08/17 12:58:27;;;;;;;3.80;3.63;;;32.90;33.30;;;;;;5119813;28;20214;-47
2022/08/17 13:01:07;;;;;;;3.33;2.90;;;32.80;33.30;;;;;;5123821;28;20220;-49
2022/08/17 13:03:42;;;;;;;3.43;3.13;;;32.80;33.40;;;;;;5121382;28;20669;-51
2022/08/17 13:06:24;;;;;;;3.17;2.87;;;32.60;33.40;;;;;;5119603;28;20205;-49
2022/08/17 13:08:54;;;;;;;2.90;2.77;;;32.50;33.90;;;;;;5116262;28;20201;-49
2022/08/17 13:11:25;;;;;;;2.70;2.50;;;32.50;33.80;;;;;;5120078;28;20225;-49
2022/08/17 13:14:07;;;;;;;2.60;2.50;;;32.80;34.20;;;;;;5113202;28;20198;-48
2022/08/17 13:16:38;;;;;;;3.53;3.33;;;32.70;34.30;;;;;;5120667;28;20671;-49
2022/08/17 13:19:14;;;;;;;6.30;4.37;;;32.60;33.90;;;;;;5120795;28;20182;-50
2022/08/17 13:21:51;;;;;;;5.83;2.97;;;32.60;33.60;;;;;;5117754;28;20224;-49
2022/08/17 13:24:32;;;;;;;3.80;3.60;;;32.60;33.90;;;;;;5119799;28;20272;-48
2022/08/17 13:27:11;;;;;;;5.80;3.40;;;32.60;34.10;;;;;;5117514;28;20244;-50
2022/08/17 13:32:35;;;;;;;9.13;3.67;;;32.30;34.30;;;;;;5110017;28;20633;-48
2022/08/17 13:35:33;;;;;;;3.37;3.17;;;32.30;34.20;;;;;;5119668;28;20194;-47
2022/08/17 13:38:25;;;;;;;3.03;2.70;;;32.20;34.50;;;;;;5120332;28;20186;-46
2022/08/17 13:40:56;;;;;;;2.77;2.63;;;32.10;34.20;;;;;;5118223;28;20209;-46
2022/08/17 13:43:56;;;;;;;4.63;3.00;;;31.90;34.80;;;;;;5126799;28;20204;-46
2022/08/17 13:46:31;;;;;;;3.17;2.97;;;32.10;34.60;;;;;;5127209;28;20200;-47
2022/08/17 13:49:10;;;;;;;3.60;3.30;;;32.30;34.30;;;;;;5129365;28;20189;-49
2022/08/17 13:51:44;;;;;;;2.80;2.60;;;32.30;34.30;;;;;;5117774;28;20224;-47
2022/08/17 13:54:29;;;;;;;3.33;2.80;;;32.30;34.30;;;;;;5142805;28;20193;-46
2022/08/17 13:57:02;;;;;;;3.23;3.13;;;32.30;33.90;;;;;;5111745;28;20189;-46
2022/08/17 13:59:42;;;;;;;3.67;3.40;;;32.40;34.00;;;;;;5115801;28;20191;-47
2022/08/17 14:02:15;;;;;;;3.30;3.00;;;32.50;33.90;;;;;;5104617;28;20197;-46
2022/08/17 14:04:47;;;;;;;2.97;2.80;;;32.50;33.20;;;;;;5118913;29;20301;-47
2022/08/17 14:07:18;;;;;;;5.07;2.57;;;32.40;33.30;;;;;;5119238;28;20209;-46